Time;durP1;ratioP1;P1;durP2;ratioP2;P2;SDS_P1;SDS_P2;PMS_P1;PMS_P2;Temp;Humidity;BMP_temperature;BMP_pressure;BME280_temperature;BME280_humidity;BME280_pressure;Samples;Min_cycle;Max_cycle;Signal;HPM_P1;HPM_P2
2023/12/11 00:00:03;;;;;;;27.03;4.47;;;;;;;16.30;63.14;99898.16;5090693;28;20497;-71
2023/12/11 00:02:29;;;;;;;33.10;4.30;;;;;;;15.72;64.91;99897.31;5092528;28;20016;-71
2023/12/11 00:04:54;;;;;;;26.77;3.73;;;;;;;16.15;62.42;99899.75;5091252;28;20368;-72
2023/12/11 00:07:19;;;;;;;32.13;4.40;;;;;;;16.19;63.27;99901.31;5090314;28;20028;-71
2023/12/11 00:09:45;;;;;;;31.07;3.63;;;;;;;15.97;64.26;99901.47;5090958;28;20407;-71
2023/12/11 00:12:10;;;;;;;28.47;4.43;;;;;;;15.75;64.50;99896.34;5092042;28;20058;-72
2023/12/11 00:14:36;;;;;;;32.00;4.23;;;;;;;15.53;65.46;99901.72;5089839;28;20084;-72
2023/12/11 00:17:01;;;;;;;36.17;3.87;;;;;;;15.88;63.25;99907.16;5091001;28;20119;-71
2023/12/11 00:19:27;;;;;;;31.10;2.97;;;;;;;15.92;63.65;99887.66;5087000;28;20127;-72
2023/12/11 00:21:53;;;;;;;28.63;3.27;;;;;;;15.69;64.01;99891.31;5090086;28;20024;-72
2023/12/11 00:24:19;;;;;;;19.90;3.13;;;;;;;16.33;62.08;99882.16;5091152;28;20028;-71
2023/12/11 00:26:45;;;;;;;31.90;3.17;;;;;;;16.62;61.06;99883.38;5091834;28;20027;-72
2023/12/11 00:29:10;;;;;;;24.33;3.63;;;;;;;15.37;63.33;99885.75;5091279;28;20035;-72
2023/12/11 00:31:35;;;;;;;29.77;3.30;;;;;;;15.44;64.44;99880.16;5090769;28;20020;-72
2023/12/11 00:34:01;;;;;;;29.83;3.07;;;;;;;16.90;59.82;99876.72;5090085;28;20043;-71
2023/12/11 00:36:27;;;;;;;28.17;2.60;;;;;;;16.49;60.76;99876.16;5091065;28;20024;-72
2023/12/11 00:38:52;;;;;;;28.53;2.87;;;;;;;16.22;62.77;99877.41;5091949;28;20016;-71
2023/12/11 00:41:18;;;;;;;36.37;5.60;;;;;;;15.59;64.99;99864.56;5090327;28;20036;-71
2023/12/11 00:43:43;;;;;;;23.67;3.53;;;;;;;16.31;63.34;99870.88;5090917;28;20385;-72
2023/12/11 00:46:16;;;;;;;24.47;2.97;;;;;;;16.34;62.98;99873.34;5089619;28;20028;-71
2023/12/11 00:48:42;;;;;;;29.07;5.27;;;;;;;16.15;61.43;99875.19;5089592;28;20024;-71
2023/12/11 00:51:16;;;;;;;24.20;2.87;;;;;;;16.24;61.32;99877.38;5091404;28;20028;-71
2023/12/11 00:53:41;;;;;;;17.63;3.37;;;;;;;16.73;60.89;99872.28;5091228;28;20043;-71
2023/12/11 00:56:07;;;;;;;27.50;4.37;;;;;;;16.67;60.91;99863.84;5088496;28;20118;-71
2023/12/11 00:58:33;;;;;;;23.03;2.33;;;;;;;16.45;60.52;99865.75;5090320;28;20020;-72
2023/12/11 01:00:58;;;;;;;16.97;2.27;;;;;;;16.09;62.88;99864.00;5090065;28;20016;-71
2023/12/11 01:03:23;;;;;;;37.53;3.97;;;;;;;16.37;61.77;99860.00;5089242;28;20039;-71
2023/12/11 01:05:49;;;;;;;34.53;4.03;;;;;;;16.24;61.00;99861.56;5087908;28;20028;-71
2023/12/11 01:08:14;;;;;;;24.70;3.00;;;;;;;16.66;60.62;99847.13;5089261;28;20052;-71
2023/12/11 01:10:40;;;;;;;27.10;4.20;;;;;;;16.18;62.21;99861.84;5088746;28;20035;-72
2023/12/11 01:13:06;;;;;;;23.20;2.93;;;;;;;16.72;59.96;99848.59;5089388;28;20361;-72
2023/12/11 01:15:31;;;;;;;26.67;3.27;;;;;;;16.00;61.26;99848.63;5091436;28;20019;-72
2023/12/11 01:17:57;;;;;;;18.00;2.90;;;;;;;17.19;57.96;99849.75;5088941;28;20024;-72
2023/12/11 01:20:22;;;;;;;32.43;3.03;;;;;;;17.16;59.06;99845.47;5076384;28;20091;-72
2023/12/11 01:22:47;;;;;;;16.43;3.27;;;;;;;16.38;61.84;99840.63;5089527;28;20418;-72
2023/12/11 01:25:13;;;;;;;26.70;3.30;;;;;;;16.50;60.91;99846.19;5088929;28;20516;-72
2023/12/11 01:27:38;;;;;;;18.33;2.63;;;;;;;16.33;60.80;99834.72;5090297;28;20031;-72
2023/12/11 01:30:05;;;;;;;14.93;2.20;;;;;;;16.21;61.37;99828.28;5088926;28;20020;-72
2023/12/11 01:32:30;;;;;;;26.70;2.93;;;;;;;16.37;61.08;99812.53;5090265;28;20026;-71
2023/12/11 01:34:56;;;;;;;29.07;3.63;;;;;;;17.39;57.39;99825.75;5091121;28;20020;-72
2023/12/11 01:37:21;;;;;;;28.37;3.13;;;;;;;16.42;61.07;99821.06;5088745;28;20027;-72
2023/12/11 01:39:46;;;;;;;29.97;3.53;;;;;;;16.67;60.59;99816.34;5089172;28;20023;-72
2023/12/11 01:42:13;;;;;;;34.93;2.97;;;;;;;16.72;61.22;99809.88;5090049;28;20441;-72
2023/12/11 01:44:38;;;;;;;13.47;2.20;;;;;;;15.88;63.01;99817.59;5088932;28;20044;-76
2023/12/11 01:47:05;;;;;;;31.93;3.07;;;;;;;16.09;63.97;99816.53;5081437;28;20557;-72
2023/12/11 01:49:30;;;;;;;19.57;2.70;;;;;;;16.13;65.04;99826.94;5090279;28;20107;-72
2023/12/11 01:51:56;;;;;;;37.87;3.83;;;;;;;15.70;68.69;99809.63;5088773;28;20118;-72
2023/12/11 01:54:22;;;;;;;26.00;3.57;;;;;;;15.78;68.27;99812.75;5088608;28;20020;-72
2023/12/11 01:56:48;;;;;;;16.50;3.37;;;;;;;15.50;68.88;99796.53;5088710;28;20024;-73
2023/12/11 01:59:14;;;;;;;18.53;2.53;;;;;;;15.62;66.79;99780.16;5087541;28;20061;-72
2023/12/11 02:01:40;;;;;;;26.07;3.63;;;;;;;16.83;62.86;99795.28;5088466;28;20160;-72
2023/12/11 02:04:07;;;;;;;24.83;2.87;;;;;;;16.40;64.36;99783.38;5088624;28;20024;-72
2023/12/11 02:06:33;;;;;;;19.00;3.23;;;;;;;15.73;67.62;99792.78;5089216;28;20023;-72
2023/12/11 02:08:59;;;;;;;31.53;4.13;;;;;;;16.32;65.04;99790.84;5089202;28;20031;-72
2023/12/11 02:11:24;;;;;;;21.27;2.17;;;;;;;15.82;65.49;99794.19;5088305;28;20023;-72
2023/12/11 02:13:50;;;;;;;30.77;3.20;;;;;;;16.47;63.95;99794.44;5082657;28;20560;-72
2023/12/11 02:16:15;;;;;;;17.77;2.20;;;;;;;15.99;66.39;99799.50;5087843;28;20074;-73
2023/12/11 02:18:41;;;;;;;26.93;3.20;;;;;;;16.59;65.76;99790.34;5088971;28;20073;-72
2023/12/11 02:21:07;;;;;;;0.00;0.00;;;;;;;15.26;69.70;99788.84;5087316;28;20043;-73
2023/12/11 02:23:41;;;;;;;0.00;0.00;;;;;;;16.27;67.10;99772.59;5089164;28;20023;-72
2023/12/11 02:26:15;;;;;;;0.23;0.23;;;;;;;15.41;71.26;99767.09;5088381;28;20077;-73
2023/12/11 02:28:40;;;;;;;0.00;0.00;;;;;;;16.04;67.17;99776.38;5087964;28;20035;-72
2023/12/11 02:31:06;;;;;;;0.00;0.00;;;;;;;16.02;68.02;99766.84;5087799;28;20396;-75
2023/12/11 02:33:32;;;;;;;0.00;0.00;;;;;;;15.83;69.20;99748.47;5089434;28;20077;-75
2023/12/11 02:35:57;;;;;;;0.30;0.30;;;;;;;15.84;67.80;99753.66;5088322;28;20035;-74
2023/12/11 02:38:23;;;;;;;0.00;0.00;;;;;;;15.85;68.17;99757.97;5087871;28;20034;-73
2023/12/11 02:40:48;;;;;;;0.10;0.10;;;;;;;16.01;66.79;99760.72;5089883;28;20028;-73
2023/12/11 02:43:14;;;;;;;1.57;0.53;;;;;;;16.16;65.79;99747.72;5086769;28;20046;-73
2023/12/11 02:45:42;;;;;;;0.00;0.00;;;;;;;16.40;64.01;99746.47;5088917;28;20028;-73
2023/12/11 02:48:07;;;;;;;0.00;0.00;;;;;;;15.94;65.51;99754.06;5089422;28;20437;-73
2023/12/11 02:50:33;;;;;;;0.17;0.17;;;;;;;16.39;63.97;99755.31;5089909;28;20051;-73
2023/12/11 02:53:02;;;;;;;2.33;2.23;;;;;;;15.61;66.27;99746.84;5089414;28;20016;-73
2023/12/11 02:55:28;;;;;;;0.10;0.10;;;;;;;15.78;64.94;99741.63;5087516;28;20028;-74
2023/12/11 02:57:57;;;;;;;0.00;0.00;;;;;;;16.06;65.36;99742.03;5087309;28;20030;-73
2023/12/11 03:00:22;;;;;;;0.37;0.37;;;;;;;16.61;62.88;99727.81;5088946;28;20024;-73
2023/12/11 03:02:47;;;;;;;0.20;0.20;;;;;;;16.61;62.86;99722.53;5087340;28;20085;-73
2023/12/11 03:05:13;;;;;;;0.00;0.00;;;;;;;15.85;64.88;99741.31;5087949;28;20024;-73
2023/12/11 03:07:38;;;;;;;0.00;0.00;;;;;;;16.28;64.10;99736.56;5088097;28;20032;-72
2023/12/11 03:10:04;;;;;;;0.00;0.00;;;;;;;16.29;62.42;99722.41;5088746;28;20036;-72
2023/12/11 03:12:30;;;;;;;0.00;0.00;;;;;;;15.96;64.92;99731.09;5088341;28;20528;-72
2023/12/11 03:14:55;;;;;;;1.03;1.03;;;;;;;16.30;64.83;99728.56;5089412;28;20024;-73
2023/12/11 03:17:21;;;;;;;0.00;0.00;;;;;;;15.92;64.99;99722.50;5088695;28;20023;-72
2023/12/11 03:19:46;;;;;;;0.20;0.20;;;;;;;15.81;64.76;99726.59;5087375;28;20024;-73
2023/12/11 03:22:11;;;;;;;1.23;0.67;;;;;;;15.98;64.25;99718.72;5087319;28;20028;-73
2023/12/11 03:24:37;;;;;;;4.93;0.83;;;;;;;16.43;62.73;99709.38;5086239;28;20024;-72
2023/12/11 03:27:02;;;;;;;0.00;0.00;;;;;;;15.97;64.06;99701.19;5087067;28;20032;-74
2023/12/11 03:29:28;;;;;;;32.07;1.30;;;;;;;16.33;65.45;99708.13;5088358;28;20073;-74
2023/12/11 03:31:53;;;;;;;0.43;0.43;;;;;;;15.76;67.36;99693.41;5092591;28;20024;-74
2023/12/11 03:34:19;;;;;;;0.00;0.00;;;;;;;16.61;63.54;99690.88;5091798;28;20025;-74
2023/12/11 03:36:44;;;;;;;0.00;0.00;;;;;;;15.89;67.67;99687.53;5091095;28;20024;-73
2023/12/11 03:39:09;;;;;;;3.40;0.97;;;;;;;15.57;66.64;99703.13;5090770;28;20468;-74
2023/12/11 03:41:35;;;;;;;0.00;0.00;;;;;;;15.38;68.64;99690.84;5092249;28;20422;-74
2023/12/11 03:44:00;;;;;;;0.00;0.00;;;;;;;15.56;66.00;99701.44;5090458;28;20048;-73
2023/12/11 03:46:26;;;;;;;0.67;0.67;;;;;;;16.25;64.55;99699.78;5092207;28;20103;-73
2023/12/11 03:48:51;;;;;;;0.00;0.00;;;;;;;15.68;66.00;99699.97;5092968;28;20134;-74
2023/12/11 03:51:16;;;;;;;0.57;0.57;;;;;;;15.55;65.90;99704.97;5093397;28;20096;-73
2023/12/11 03:53:42;;;;;;;0.57;0.57;;;;;;;15.38;66.83;99701.38;5089797;28;20456;-73
2023/12/11 03:56:08;;;;;;;0.50;0.50;;;;;;;15.32;67.07;99695.53;5091019;28;20040;-73
2023/12/11 03:58:33;;;;;;;0.00;0.00;;;;;;;15.63;66.04;99681.75;5089887;28;20028;-73
2023/12/11 04:00:58;;;;;;;0.00;0.00;;;;;;;16.21;63.72;99674.50;5091396;28;20146;-73
2023/12/11 04:03:24;;;;;;;3.97;2.33;;;;;;;15.21;67.42;99689.03;5090889;28;20032;-73
2023/12/11 04:05:49;;;;;;;0.00;0.00;;;;;;;15.43;67.52;99670.41;5090663;28;20147;-73
2023/12/11 04:08:16;;;;;;;0.00;0.00;;;;;;;16.11;62.84;99679.41;5090115;28;20034;-73
2023/12/11 04:10:41;;;;;;;0.00;0.00;;;;;;;15.87;64.85;99678.88;5092238;28;20063;-73
2023/12/11 04:13:07;;;;;;;3.63;1.50;;;;;;;15.81;63.22;99680.00;5089835;28;20039;-73
2023/12/11 04:15:33;;;;;;;0.00;0.00;;;;;;;16.47;61.69;99672.28;5091261;28;20028;-73
2023/12/11 04:17:58;;;;;;;2.30;2.10;;;;;;;15.74;63.22;99668.06;5092478;28;20025;-73
2023/12/11 04:20:24;;;;;;;0.00;0.00;;;;;;;16.55;60.34;99664.81;5091114;28;20484;-73
2023/12/11 04:22:49;;;;;;;6.80;0.37;;;;;;;16.58;59.41;99675.19;5091898;28;20171;-73
2023/12/11 04:25:15;;;;;;;0.00;0.00;;;;;;;16.02;61.46;99672.81;5089385;28;20043;-73
2023/12/11 04:27:40;;;;;;;0.07;0.07;;;;;;;16.21;60.22;99667.47;5090063;28;20403;-73
2023/12/11 04:30:06;;;;;;;40.40;2.23;;;;;;;16.34;59.76;99672.09;5089796;28;20024;-73
2023/12/11 04:32:31;;;;;;;0.00;0.00;;;;;;;15.24;62.25;99683.63;5073853;28;20059;-73
2023/12/11 04:34:57;;;;;;;0.47;0.47;;;;;;;16.39;59.51;99665.66;5091396;28;20179;-72
2023/12/11 04:37:22;;;;;;;2.37;0.93;;;;;;;15.80;61.76;99665.16;5090253;28;20035;-73
2023/12/11 04:39:48;;;;;;;0.00;0.00;;;;;;;16.54;59.33;99655.19;5091898;28;20042;-72
2023/12/11 04:42:13;;;;;;;0.00;0.00;;;;;;;16.04;61.38;99665.69;5090858;28;20060;-72
2023/12/11 04:44:39;;;;;;;5.20;2.07;;;;;;;15.24;62.74;99657.28;5089902;28;20476;-72
2023/12/11 04:47:04;;;;;;;0.00;0.00;;;;;;;16.48;60.12;99658.19;5089818;28;20421;-73
2023/12/11 04:49:30;;;;;;;0.00;0.00;;;;;;;16.43;59.61;99646.09;5089614;28;20076;-73
2023/12/11 04:51:55;;;;;;;9.97;1.07;;;;;;;15.87;59.82;99653.38;5082631;28;20495;-72
2023/12/11 04:54:21;;;;;;;0.30;0.30;;;;;;;16.15;59.07;99635.28;5089301;28;20107;-73
2023/12/11 04:56:46;;;;;;;0.00;0.00;;;;;;;16.39;57.56;99639.28;5089132;28;20052;-72
2023/12/11 04:59:12;;;;;;;0.57;0.40;;;;;;;16.83;56.80;99621.97;5090498;28;20068;-72
2023/12/11 05:01:37;;;;;;;0.30;0.30;;;;;;;16.35;57.87;99631.59;5089999;28;20483;-73
2023/12/11 05:04:03;;;;;;;0.00;0.00;;;;;;;15.52;60.13;99640.13;5089128;28;20028;-72
2023/12/11 05:06:28;;;;;;;0.00;0.00;;;;;;;16.18;57.43;99646.50;5091032;28;20022;-72
2023/12/11 05:08:54;;;;;;;4.90;1.83;;;;;;;15.85;58.78;99643.84;5090683;28;20548;-72
2023/12/11 05:11:19;;;;;;;0.00;0.00;;;;;;;16.07;58.82;99648.84;5091034;28;20308;-73
2023/12/11 05:13:44;;;;;;;0.00;0.00;;;;;;;15.89;58.55;99648.03;5091092;28;20027;-73
2023/12/11 05:16:10;;;;;;;0.00;0.00;;;;;;;16.21;57.83;99641.09;5089677;28;20382;-72
2023/12/11 05:18:37;;;;;;;0.10;0.10;;;;;;;15.59;60.09;99653.88;5089736;28;20499;-72
2023/12/11 05:21:09;;;;;;;0.00;0.00;;;;;;;15.71;61.73;99644.50;5088894;28;20042;-72
2023/12/11 05:23:35;;;;;;;0.00;0.00;;;;;;;15.84;61.00;99642.13;5090397;28;20032;-72
2023/12/11 05:26:01;;;;;;;0.00;0.00;;;;;;;15.90;61.33;99639.19;5089346;28;20028;-72
2023/12/11 05:28:26;;;;;;;0.00;0.00;;;;;;;15.78;60.34;99630.97;5089159;28;20362;-72
2023/12/11 05:30:52;;;;;;;0.00;0.00;;;;;;;16.31;58.91;99636.19;5088155;28;20380;-72
2023/12/11 05:33:17;;;;;;;0.00;0.00;;;;;;;15.60;60.44;99639.78;5090177;28;20024;-72
2023/12/11 05:35:43;;;;;;;15.17;2.70;;;;;;;16.66;58.46;99625.53;5089466;28;20032;-72
2023/12/11 05:38:08;;;;;;;12.77;1.30;;;;;;;16.41;58.44;99632.13;5089742;28;20036;-72
2023/12/11 05:40:34;;;;;;;6.50;1.73;;;;;;;15.36;60.94;99637.44;5090077;28;20036;-72
2023/12/11 05:43:02;;;;;;;9.13;1.83;;;;;;;15.65;62.32;99631.63;5089367;28;20056;-72
2023/12/11 05:45:28;;;;;;;13.80;2.20;;;;;;;17.00;57.48;99634.25;5087140;28;20032;-72
2023/12/11 05:47:53;;;;;;;12.20;1.50;;;;;;;15.73;61.65;99630.34;5090630;28;20042;-72
2023/12/11 05:50:19;;;;;;;20.23;2.00;;;;;;;14.87;65.72;99622.19;5087834;28;20464;-72
2023/12/11 05:52:44;;;;;;;15.07;2.70;;;;;;;15.29;63.47;99625.50;5089827;28;20078;-72
2023/12/11 05:55:10;;;;;;;17.73;1.97;;;;;;;15.69;62.99;99630.53;5088700;28;20028;-72
2023/12/11 05:57:35;;;;;;;13.20;1.57;;;;;;;15.31;64.76;99644.69;5090941;28;20059;-73
2023/12/11 06:00:02;;;;;;;13.10;2.03;;;;;;;15.50;65.86;99643.81;5088079;28;20031;-72
2023/12/11 06:02:27;;;;;;;13.70;1.90;;;;;;;14.89;66.57;99638.78;5090073;28;20088;-73
2023/12/11 06:04:53;;;;;;;18.10;1.63;;;;;;;15.60;64.47;99634.50;5088744;28;20020;-73
2023/12/11 06:07:18;;;;;;;11.80;1.73;;;;;;;15.62;61.53;99622.13;5087736;28;20438;-73
2023/12/11 06:09:44;;;;;;;6.60;1.87;;;;;;;16.18;60.59;99632.50;5090407;28;20093;-72
2023/12/11 06:12:09;;;;;;;12.37;1.87;;;;;;;16.00;59.87;99637.78;5087050;28;20393;-72
2023/12/11 06:14:39;;;;;;;15.43;1.37;;;;;;;15.86;59.76;99645.56;5089667;28;20372;-72
2023/12/11 06:17:04;;;;;;;8.10;1.73;;;;;;;15.18;61.17;99638.31;5088315;28;20549;-73
2023/12/11 06:19:30;;;;;;;8.70;1.50;;;;;;;15.66;60.67;99634.22;5088683;28;20028;-72
2023/12/11 06:21:55;;;;;;;17.10;1.67;;;;;;;15.89;60.61;99624.31;5089352;28;20031;-72
2023/12/11 06:24:21;;;;;;;14.73;2.33;;;;;;;15.90;59.88;99641.84;5088147;28;20032;-72
2023/12/11 06:26:46;;;;;;;7.10;1.47;;;;;;;15.73;60.87;99640.00;5086971;28;20028;-73
2023/12/11 06:29:12;;;;;;;11.53;1.20;;;;;;;15.35;62.75;99640.13;5087855;28;20118;-72
2023/12/11 06:31:37;;;;;;;13.93;2.13;;;;;;;15.37;62.03;99657.56;5088778;28;20028;-72
2023/12/11 06:34:03;;;;;;;10.43;1.20;;;;;;;14.73;66.48;99664.09;5088846;28;20581;-72
2023/12/11 06:36:29;;;;;;;12.47;1.83;;;;;;;14.56;68.89;99676.19;5087827;28;20027;-72
2023/12/11 06:38:54;;;;;;;6.73;1.50;;;;;;;15.34;65.53;99684.03;5089254;28;20024;-72
2023/12/11 06:41:20;;;;;;;11.27;1.70;;;;;;;15.53;65.31;99669.97;5086775;28;20584;-72
2023/12/11 06:43:53;;;;;;;7.97;1.40;;;;;;;14.71;69.40;99692.22;5088757;28;20040;-73
2023/12/11 06:46:19;;;;;;;13.40;2.60;;;;;;;15.61;66.21;99692.38;5088488;28;20070;-73
2023/12/11 06:48:44;;;;;;;12.00;1.27;;;;;;;14.44;71.53;99716.19;5085866;28;20020;-74
2023/12/11 06:51:10;;;;;;;15.80;1.50;;;;;;;15.32;68.68;99698.19;5089562;28;20077;-74
2023/12/11 06:53:35;;;;;;;0.00;0.00;;;;;;;14.99;71.85;99707.59;5088576;28;20026;-75
2023/12/11 06:56:01;;;;;;;0.00;0.00;;;;;;;14.49;73.05;99723.84;5088234;28;20026;-76
2023/12/11 06:58:26;;;;;;;0.00;0.00;;;;;;;14.20;76.14;99720.72;5090266;28;20024;-76
2023/12/11 07:00:51;;;;;;;0.00;0.00;;;;;;;14.89;73.71;99722.09;5090341;28;20016;-76
2023/12/11 07:03:17;;;;;;;0.00;0.00;;;;;;;14.50;74.09;99720.31;5087258;28;20065;-75
2023/12/11 07:05:43;;;;;;;0.40;0.40;;;;;;;14.22;75.78;99718.88;5091275;28;20024;-75
2023/12/11 07:08:09;;;;;;;0.00;0.00;;;;;;;15.02;70.71;99717.97;5092996;28;20110;-75
2023/12/11 07:10:34;;;;;;;0.43;0.30;;;;;;;15.36;69.35;99726.94;5090842;28;20038;-75
2023/12/11 07:13:02;;;;;;;0.00;0.00;;;;;;;14.78;72.14;99729.63;5091916;28;20024;-75
2023/12/11 07:15:28;;;;;;;0.00;0.00;;;;;;;14.89;70.92;99735.25;5092425;28;20116;-74
2023/12/11 07:17:55;;;;;;;0.00;0.00;;;;;;;14.56;70.99;99759.47;5093819;28;20118;-74
2023/12/11 07:20:20;;;;;;;0.00;0.00;;;;;;;14.22;74.06;99760.94;5093195;28;20240;-74
2023/12/11 07:22:46;;;;;;;0.00;0.00;;;;;;;14.63;73.17;99739.91;5091776;28;20024;-74
2023/12/11 07:25:12;;;;;;;1.00;1.00;;;;;;;14.72;70.63;99752.66;5092237;28;20031;-74
2023/12/11 07:27:41;;;;;;;0.00;0.00;;;;;;;14.66;68.32;99771.34;5092821;28;20119;-74
2023/12/11 07:30:07;;;;;;;0.00;0.00;;;;;;;15.33;66.39;99769.22;5091220;28;20111;-74
2023/12/11 07:32:32;;;;;;;1.17;1.07;;;;;;;15.51;65.78;99769.25;5093825;28;20491;-74
2023/12/11 07:34:57;;;;;;;0.00;0.00;;;;;;;14.79;67.75;99773.44;5092484;28;20063;-74
2023/12/11 07:37:23;;;;;;;0.00;0.00;;;;;;;15.45;71.74;99775.66;5092056;28;20127;-74
2023/12/11 07:39:49;;;;;;;0.00;0.00;;;;;;;14.63;69.93;99791.66;5093210;28;20027;-74
2023/12/11 07:42:14;;;;;;;0.40;0.40;;;;;;;14.57;69.64;99805.88;5092808;28;20024;-74
2023/12/11 07:44:39;;;;;;;0.00;0.00;;;;;;;15.29;67.85;99804.50;5092264;28;20061;-75
2023/12/11 07:47:05;;;;;;;0.00;0.00;;;;;;;15.68;66.04;99811.47;5092611;28;20034;-74
2023/12/11 07:49:30;;;;;;;0.00;0.00;;;;;;;14.35;71.43;99796.28;5093411;28;20035;-75
2023/12/11 07:51:56;;;;;;;0.00;0.00;;;;;;;14.84;69.43;99819.66;5092360;28;20058;-76
2023/12/11 07:54:21;;;;;;;0.10;0.10;;;;;;;14.93;69.10;99834.16;5092750;28;20020;-75
2023/12/11 07:56:47;;;;;;;0.00;0.00;;;;;;;14.92;68.62;99843.00;5091832;28;20028;-76
2023/12/11 07:59:12;;;;;;;0.00;0.00;;;;;;;15.35;68.17;99835.81;5090964;28;20268;-75
2023/12/11 08:01:38;;;;;;;0.10;0.10;;;;;;;15.15;68.11;99881.44;5090919;28;20449;-76
2023/12/11 08:04:04;;;;;;;0.00;0.00;;;;;;;14.44;71.40;99852.88;5090496;28;20035;-76
2023/12/11 08:06:29;;;;;;;0.00;0.00;;;;;;;15.14;68.42;99878.88;5091273;28;20020;-75
2023/12/11 08:08:55;;;;;;;0.00;0.00;;;;;;;15.09;67.91;99887.00;5091653;28;20027;-76
2023/12/11 08:11:28;;;;;;;0.00;0.00;;;;;;;15.03;70.29;99890.75;5092295;28;20027;-75
2023/12/11 08:13:54;;;;;;;0.10;0.10;;;;;;;15.04;70.23;99903.00;5091094;28;20036;-74
2023/12/11 08:16:19;;;;;;;0.00;0.00;;;;;;;15.26;68.38;99899.41;5092285;28;20632;-75
2023/12/11 08:18:45;;;;;;;0.27;0.27;;;;;;;15.26;68.61;99912.56;5092518;28;20112;-75
2023/12/11 08:21:11;;;;;;;0.00;0.00;;;;;;;14.96;70.58;99918.25;5092688;28;20070;-74
2023/12/11 08:23:41;;;;;;;0.27;0.27;;;;;;;14.86;70.41;99927.44;5091072;28;20027;-75
2023/12/11 08:26:06;;;;;;;0.00;0.00;;;;;;;15.87;66.81;99931.84;5090050;28;20116;-75
2023/12/11 08:28:33;;;;;;;0.00;0.00;;;;;;;14.73;71.16;99938.47;5092506;28;20483;-75
2023/12/11 08:30:58;;;;;;;0.00;0.00;;;;;;;15.99;66.28;99947.09;5092711;28;20107;-75
2023/12/11 08:33:23;;;;;;;0.00;0.00;;;;;;;15.08;67.88;99958.97;5089661;28;20123;-75
2023/12/11 08:35:49;;;;;;;9.43;1.77;;;;;;;15.32;66.40;99972.84;5091541;28;20089;-75
2023/12/11 08:38:17;;;;;;;8.20;2.27;;;;;;;14.75;67.45;99968.22;5079357;28;20076;-74
2023/12/11 08:40:44;;;;;;;14.63;2.50;;;;;;;15.34;65.07;99976.25;5105045;28;20140;-75
2023/12/11 08:43:12;;;;;;;7.23;2.67;;;;;;;15.14;64.01;99992.06;5094813;28;20047;-76
2023/12/11 08:45:38;;;;;;;10.83;2.37;;;;;;;14.82;62.83;99983.75;5081900;28;20031;-74
2023/12/11 08:48:04;;;;;;;13.40;2.40;;;;;;;14.65;62.77;100013.38;5090053;28;20028;-75
2023/12/11 08:50:29;;;;;;;6.13;1.00;;;;;;;14.67;61.32;99980.84;5091028;28;20368;-73
2023/12/11 08:52:54;;;;;;;5.23;1.37;;;;;;;14.65;63.39;100013.38;5088661;28;20030;-74
2023/12/11 08:55:20;;;;;;;5.33;1.03;;;;;;;14.78;63.33;100005.81;5089377;28;20562;-73
2023/12/11 08:57:45;;;;;;;2.93;1.07;;;;;;;14.83;60.68;100009.13;5091719;28;20517;-73
2023/12/11 09:00:11;;;;;;;7.67;1.80;;;;;;;14.48;63.22;100017.50;5091465;28;20538;-73
2023/12/11 09:02:37;;;;;;;5.37;1.40;;;;;;;15.50;58.90;100012.50;5091019;28;20546;-73
2023/12/11 09:05:03;;;;;;;4.13;1.53;;;;;;;15.18;59.37;100027.84;5091323;28;20024;-73
2023/12/11 09:07:29;;;;;;;1.37;0.90;;;;;;;14.97;60.11;100040.97;5090524;28;20020;-73
2023/12/11 09:09:55;;;;;;;8.20;2.80;;;;;;;15.16;59.97;100040.25;5089919;28;20544;-73
2023/12/11 09:12:21;;;;;;;5.90;1.00;;;;;;;15.67;58.60;100045.97;5089097;28;20028;-73
2023/12/11 09:14:46;;;;;;;3.57;1.20;;;;;;;15.37;58.35;100055.16;5089808;28;20073;-73
2023/12/11 09:17:12;;;;;;;4.33;1.43;;;;;;;15.27;58.49;100059.91;5090262;28;20024;-72
2023/12/11 09:19:37;;;;;;;7.07;1.50;;;;;;;15.55;57.02;100063.16;5090334;28;20028;-73
2023/12/11 09:22:02;;;;;;;11.57;1.37;;;;;;;15.00;58.23;100077.72;5088955;28;20115;-72
2023/12/11 09:24:28;;;;;;;6.93;1.23;;;;;;;15.53;57.66;100086.09;5091267;28;20035;-71
2023/12/11 09:26:53;;;;;;;15.83;1.97;;;;;;;15.70;57.31;100094.13;5090674;28;20398;-73
2023/12/11 09:29:19;;;;;;;14.77;2.27;;;;;;;15.70;58.07;100104.69;5088659;28;20024;-72
2023/12/11 09:31:45;;;;;;;4.33;0.90;;;;;;;15.24;58.23;100090.78;5090330;28;20053;-72
2023/12/11 09:34:10;;;;;;;5.30;1.50;;;;;;;15.23;58.14;100102.25;5089240;28;20534;-73
2023/12/11 09:36:36;;;;;;;9.67;3.10;;;;;;;15.62;57.82;100112.03;5090354;28;20028;-72
2023/12/11 09:39:04;;;;;;;3.83;1.47;;;;;;;15.86;55.61;100114.56;5089610;28;20039;-72
2023/12/11 09:41:33;;;;;;;4.70;0.50;;;;;;;15.24;56.43;100127.66;5089670;28;20020;-72
2023/12/11 09:44:00;;;;;;;6.00;1.00;;;;;;;15.68;55.63;100130.22;5090071;28;20395;-73
2023/12/11 09:46:32;;;;;;;8.70;1.03;;;;;;;15.84;54.85;100135.72;5089800;28;20024;-73
2023/12/11 09:48:58;;;;;;;12.00;1.17;;;;;;;15.59;54.16;100138.50;5089916;28;20097;-72
2023/12/11 09:51:24;;;;;;;2.90;1.13;;;;;;;16.28;53.45;100147.88;5088432;28;20036;-72
2023/12/11 09:53:52;;;;;;;5.50;0.60;;;;;;;15.66;54.88;100150.50;5089356;28;20030;-72
2023/12/11 09:56:18;;;;;;;3.23;1.90;;;;;;;15.41;54.94;100169.97;5054946;28;20401;-72
2023/12/11 09:58:45;;;;;;;6.20;1.47;;;;;;;15.94;54.29;100170.44;5064157;28;20039;-72
2023/12/11 10:01:14;;;;;;;3.87;1.33;;;;;;;15.46;54.84;100175.03;5047807;28;20132;-72
2023/12/11 10:03:40;;;;;;;6.13;1.00;;;;;;;16.35;53.37;100180.97;5059144;28;20075;-72
2023/12/11 10:06:05;;;;;;;4.80;0.70;;;;;;;15.34;55.79;100186.91;5044503;28;20059;-72
2023/12/11 10:08:42;;;;;;;12.97;1.20;;;;;;;16.53;53.59;100189.81;5056532;28;20035;-72
2023/12/11 10:11:13;;;;;;;4.13;0.93;;;;;;;16.07;54.96;100198.00;5054181;28;20426;-72
2023/12/11 10:13:39;;;;;;;4.13;0.80;;;;;;;15.85;55.10;100205.09;5050725;28;20033;-72
2023/12/11 10:16:08;;;;;;;3.93;0.90;;;;;;;16.03;54.20;100200.81;5046734;28;20029;-73
2023/12/11 10:18:46;;;;;;;6.40;0.80;;;;;;;15.67;55.03;100214.56;5054074;28;20029;-81
2023/12/11 10:21:12;;;;;;;5.43;0.90;;;;;;;15.94;54.20;100212.63;5058956;28;20052;-81
2023/12/11 10:23:37;;;;;;;14.17;1.10;;;;;;;16.13;53.29;100217.09;5040614;28;20075;-79
2023/12/11 10:26:06;;;;;;;7.50;0.80;;;;;;;15.56;55.10;100233.44;5048894;28;20467;-80
2023/12/11 10:28:32;;;;;;;2.57;0.70;;;;;;;15.26;55.22;100231.09;5049880;28;20029;-79
2023/12/11 10:31:01;;;;;;;3.13;1.00;;;;;;;15.67;54.52;100235.66;5066770;28;20043;-80
2023/12/11 10:33:30;;;;;;;3.50;1.03;;;;;;;16.09;53.20;100227.78;5054462;28;20399;-80
2023/12/11 10:36:12;;;;;;;6.33;0.97;;;;;;;16.13;52.99;100235.53;5055030;28;20048;-80
2023/12/11 10:38:38;;;;;;;7.47;1.27;;;;;;;16.28;53.16;100237.53;5054148;28;20035;-80
2023/12/11 10:41:04;;;;;;;8.87;1.43;;;;;;;15.86;53.01;100235.78;5050078;28;20040;-80
2023/12/11 10:43:38;;;;;;;10.43;1.40;;;;;;;15.99;55.20;100237.00;5049599;28;20080;-79
2023/12/11 10:46:04;;;;;;;2.63;1.20;;;;;;;16.89;52.61;100233.13;5069439;28;20032;-81
2023/12/11 10:48:30;;;;;;;6.60;1.33;;;;;;;15.94;54.89;100239.81;5070997;28;20392;-80
2023/12/11 10:50:55;;;;;;;5.03;1.20;;;;;;;15.85;54.68;100250.72;5047374;28;20033;-80
2023/12/11 10:53:21;;;;;;;5.47;1.67;;;;;;;15.95;54.06;100256.50;5043869;28;20020;-79
2023/12/11 10:55:49;;;;;;;4.10;1.40;;;;;;;16.14;54.37;100261.00;5052091;28;20116;-80
2023/12/11 10:58:14;;;;;;;5.83;1.20;;;;;;;17.13;52.39;100263.66;5048770;28;20123;-79
2023/12/11 11:00:40;;;;;;;6.77;1.33;;;;;;;16.59;53.10;100267.84;5043291;28;20029;-80
2023/12/11 11:03:09;;;;;;;12.27;2.37;;;;;;;16.33;54.62;100271.63;5049348;28;20485;-80
2023/12/11 11:05:35;;;;;;;7.80;1.83;;;;;;;15.86;54.48;100284.06;5053994;28;20447;-81
2023/12/11 11:08:24;;;;;;;4.27;1.20;;;;;;;16.23;54.65;100292.25;5048797;28;20033;-80
2023/12/11 11:10:56;;;;;;;6.13;1.50;;;;;;;16.37;53.61;100274.03;5047325;28;20115;-80
2023/12/11 11:13:38;;;;;;;2.75;1.40;;;;;;;16.49;52.82;100277.09;5048679;28;20100;-80
2023/12/11 11:16:03;;;;;;;3.63;1.47;;;;;;;17.26;51.57;100279.78;5045473;28;20037;-80
2023/12/11 11:18:29;;;;;;;14.00;2.50;;;;;;;16.84;52.30;100278.16;5049570;28;20082;-81
2023/12/11 11:21:11;;;;;;;11.03;2.33;;;;;;;16.90;51.81;100280.56;5065231;28;20027;-80
2023/12/11 11:23:45;;;;;;;;;;;;;;;16.78;51.63;100283.72;5047510;28;20040;-81